createdAt,value
2017-07-25T00:00:24.421Z,89.72
2017-07-25T00:02:51.861Z,91.45
2017-07-25T00:05:19.342Z,90.85
2017-07-25T00:07:46.786Z,91.12
2017-07-25T00:10:14.225Z,91.46
2017-07-25T00:12:41.692Z,91.01
2017-07-25T00:15:09.156Z,91.45
2017-07-25T00:17:36.684Z,91.11
2017-07-25T00:20:04.145Z,90.56
2017-07-25T00:22:31.616Z,90.55
2017-07-25T00:24:59.211Z,89.81
2017-07-25T00:27:27.224Z,89.78
2017-07-25T00:29:54.710Z,90.70
2017-07-25T00:32:22.162Z,90.03
2017-07-25T00:34:49.633Z,89.80
2017-07-25T00:37:17.081Z,88.99
2017-07-25T00:39:44.549Z,89.35
2017-07-25T00:42:11.997Z,89.35
2017-07-25T00:44:39.486Z,89.27
2017-07-25T00:47:06.933Z,88.30
2017-07-25T00:49:34.388Z,87.89
2017-07-25T00:54:38.536Z,87.96
2017-07-25T00:57:05.974Z,87.31
2017-07-25T00:59:33.417Z,88.66
2017-07-25T01:02:00.897Z,87.92
2017-07-25T01:04:28.352Z,88.28
2017-07-25T01:06:55.804Z,88.22
2017-07-25T01:09:23.269Z,87.91
2017-07-25T01:11:50.746Z,87.98
2017-07-25T01:14:18.185Z,88.44
2017-07-25T01:16:45.631Z,88.33
2017-07-25T01:19:13.117Z,88.59
2017-07-25T01:21:40.567Z,88.78
2017-07-25T01:24:08.014Z,87.89
2017-07-25T01:26:35.486Z,87.52
2017-07-25T01:29:02.935Z,87.63
2017-07-25T01:31:30.405Z,87.73
2017-07-25T01:33:57.866Z,86.96
2017-07-25T01:36:30.246Z,87.99
2017-07-25T01:38:57.725Z,87.48
2017-07-25T01:41:25.190Z,87.10
2017-07-25T01:43:52.633Z,87.08
2017-07-25T01:46:20.104Z,86.21
2017-07-25T01:48:47.594Z,86.29
2017-07-25T01:51:15.036Z,86.51
2017-07-25T01:53:42.522Z,86.30
2017-07-25T01:56:09.978Z,87.19
2017-07-25T01:58:37.428Z,86.60
2017-07-25T02:01:04.909Z,87.56
2017-07-25T02:03:32.355Z,87.45
2017-07-25T02:05:59.808Z,87.71
2017-07-25T02:08:27.273Z,87.64
2017-07-25T02:10:54.720Z,88.69
2017-07-25T02:13:22.193Z,88.61
2017-07-25T02:15:49.628Z,86.23
2017-07-25T02:18:17.112Z,86.08
2017-07-25T02:20:44.556Z,85.55
2017-07-25T02:23:12.006Z,86.16
2017-07-25T02:25:39.492Z,86.64
2017-07-25T02:28:06.939Z,85.77
2017-07-25T02:30:34.397Z,86.49
2017-07-25T02:33:01.878Z,86.32
2017-07-25T02:35:29.328Z,87.60
2017-07-25T02:37:56.793Z,86.87
2017-07-25T02:40:24.253Z,87.57
2017-07-25T02:42:51.717Z,88.08
2017-07-25T02:45:19.191Z,88.55
2017-07-25T02:47:46.645Z,88.86
2017-07-25T02:50:14.096Z,88.74
2017-07-25T02:52:41.560Z,89.18
2017-07-25T02:55:09.014Z,89.17
2017-07-25T02:57:36.506Z,88.55
2017-07-25T03:00:03.970Z,88.56
2017-07-25T03:02:31.420Z,88.09
2017-07-25T03:04:58.893Z,88.20
2017-07-25T03:07:26.357Z,87.81
2017-07-25T03:09:53.805Z,88.73
2017-07-25T03:12:21.258Z,89.29
2017-07-25T03:14:48.713Z,89.64
2017-07-25T03:17:16.180Z,89.57
2017-07-25T03:19:43.654Z,89.51
2017-07-25T03:22:11.100Z,89.40
2017-07-25T03:24:38.542Z,88.83
2017-07-25T03:27:06.017Z,89.79
2017-07-25T03:29:33.488Z,88.40
2017-07-25T03:32:00.936Z,88.50
2017-07-25T03:34:28.539Z,88.64
2017-07-25T03:36:55.993Z,86.52
2017-07-25T03:39:23.438Z,87.70
2017-07-25T03:41:51.323Z,87.05
2017-07-25T03:44:18.773Z,83.67
2017-07-25T03:46:46.225Z,83.17
2017-07-25T03:49:13.696Z,85.64
2017-07-25T03:51:41.168Z,86.86
2017-07-25T03:54:08.610Z,87.12
2017-07-25T03:56:36.086Z,86.77
2017-07-25T03:59:03.556Z,88.02
2017-07-25T04:01:31.867Z,86.82
2017-07-25T04:03:59.344Z,86.49
2017-07-25T04:06:26.789Z,87.36
2017-07-25T04:08:54.252Z,87.76
2017-07-25T04:11:21.718Z,87.68
2017-07-25T04:13:49.178Z,87.57
2017-07-25T04:16:16.653Z,87.29
2017-07-25T04:18:44.101Z,86.85
2017-07-25T04:21:11.693Z,86.56
2017-07-25T04:23:39.140Z,86.67
2017-07-25T04:26:06.584Z,86.34
2017-07-25T04:28:34.053Z,86.23
2017-07-25T04:31:01.497Z,86.10
2017-07-25T04:33:29.217Z,85.39
2017-07-25T04:35:56.925Z,86.25
2017-07-25T04:38:24.810Z,85.75
2017-07-25T04:40:52.269Z,85.93
2017-07-25T04:43:19.921Z,86.43
2017-07-25T04:45:47.376Z,85.63
2017-07-25T04:48:14.830Z,86.41
2017-07-25T04:50:42.296Z,86.82
2017-07-25T04:53:09.758Z,86.00
2017-07-25T04:55:37.221Z,87.16
2017-07-25T04:58:04.667Z,85.20
2017-07-25T05:00:32.138Z,84.34
2017-07-25T05:02:59.623Z,85.12
2017-07-25T05:05:27.068Z,84.07
2017-07-25T05:07:54.705Z,83.95
2017-07-25T05:10:22.152Z,85.00
2017-07-25T05:12:49.602Z,84.26
2017-07-25T05:15:17.246Z,84.92
2017-07-25T05:17:44.690Z,84.88
2017-07-25T05:20:12.129Z,83.66
2017-07-25T05:22:39.624Z,84.29
2017-07-25T05:25:07.106Z,83.42
2017-07-25T05:27:34.533Z,82.65
2017-07-25T05:30:01.997Z,82.36
2017-07-25T05:32:29.467Z,82.46
2017-07-25T05:34:56.936Z,81.53
2017-07-25T05:37:24.369Z,80.77
2017-07-25T05:39:51.840Z,79.86
2017-07-25T05:42:19.297Z,79.27
2017-07-25T05:44:46.766Z,80.22
2017-07-25T05:47:14.210Z,80.20
2017-07-25T05:49:41.685Z,80.37
2017-07-25T05:52:09.165Z,81.01
2017-07-25T05:54:36.616Z,80.14
2017-07-25T05:57:04.069Z,81.05
2017-07-25T05:59:31.542Z,76.80
2017-07-25T06:01:58.989Z,76.48
2017-07-25T06:04:26.453Z,78.81
2017-07-25T06:06:53.893Z,78.17
2017-07-25T06:09:21.368Z,78.30
2017-07-25T06:11:48.840Z,79.14
2017-07-25T06:14:16.543Z,78.04
2017-07-25T06:16:43.997Z,77.42
2017-07-25T06:19:11.453Z,78.40
2017-07-25T06:21:39.291Z,76.81
2017-07-25T06:24:06.741Z,75.86
2017-07-25T06:26:34.185Z,76.66
2017-07-25T06:29:01.670Z,75.06
2017-07-25T06:31:29.430Z,76.09
2017-07-25T06:33:56.873Z,75.52
2017-07-25T06:36:24.321Z,74.54
2017-07-25T06:38:51.802Z,73.87
2017-07-25T06:41:19.243Z,77.87
2017-07-25T06:43:46.708Z,77.65
2017-07-25T06:46:14.148Z,77.99
2017-07-25T06:48:41.632Z,77.87
2017-07-25T06:51:09.073Z,78.54
2017-07-25T06:53:36.522Z,77.98
2017-07-25T06:56:03.990Z,77.42
2017-07-25T06:58:31.457Z,78.02
2017-07-25T07:00:58.912Z,77.76
2017-07-25T07:03:26.380Z,77.85
2017-07-25T07:05:53.829Z,76.75
2017-07-25T07:08:21.633Z,76.96
2017-07-25T07:10:49.081Z,76.07
2017-07-25T07:13:16.532Z,77.51
2017-07-25T07:15:44.016Z,76.55
2017-07-25T07:18:11.468Z,76.28
2017-07-25T07:20:38.948Z,74.71
2017-07-25T07:23:06.400Z,74.59
2017-07-25T07:25:33.845Z,73.57
2017-07-25T07:28:01.317Z,72.00
2017-07-25T07:30:28.760Z,71.61
2017-07-25T07:32:56.228Z,71.86
2017-07-25T07:35:23.677Z,72.69
2017-07-25T07:37:51.154Z,71.63
2017-07-25T07:40:18.628Z,74.65
2017-07-25T07:42:46.098Z,73.27
2017-07-25T07:45:13.542Z,74.68
2017-07-25T07:47:41.021Z,76.45
2017-07-25T07:50:08.469Z,77.61
2017-07-25T07:52:35.917Z,83.29
2017-07-25T07:55:03.384Z,85.50
2017-07-25T07:57:30.860Z,86.42
2017-07-25T07:59:58.311Z,86.72
2017-07-25T08:02:25.788Z,84.75
2017-07-25T08:04:53.237Z,87.59
2017-07-25T08:07:20.725Z,86.14
2017-07-25T08:09:48.168Z,84.07
2017-07-25T08:12:15.613Z,83.31
2017-07-25T08:14:43.091Z,81.11
2017-07-25T08:17:10.534Z,83.71
2017-07-25T08:19:37.980Z,81.24
2017-07-25T08:22:05.556Z,80.52
2017-07-25T08:24:33.000Z,79.67
2017-07-25T08:27:00.689Z,78.62
2017-07-25T08:29:28.153Z,75.85
2017-07-25T08:31:55.593Z,75.87
2017-07-25T08:34:23.053Z,75.44
2017-07-25T08:36:50.493Z,77.68
2017-07-25T08:39:17.966Z,76.33
2017-07-25T08:41:45.443Z,76.70
2017-07-25T08:44:12.886Z,75.72
2017-07-25T08:46:40.357Z,74.74
2017-07-25T08:49:07.805Z,75.53
2017-07-25T08:51:35.283Z,73.42
2017-07-25T08:54:02.756Z,73.39
2017-07-25T08:56:30.204Z,73.09
2017-07-25T08:58:57.686Z,72.01
2017-07-25T09:01:25.156Z,70.28
2017-07-25T09:03:52.609Z,68.65
2017-07-25T09:06:20.072Z,69.33
2017-07-25T09:08:47.530Z,70.42
2017-07-25T09:11:15.012Z,69.52
2017-07-25T09:13:42.460Z,67.21
2017-07-25T09:16:09.909Z,67.29
2017-07-25T09:18:37.384Z,65.44
2017-07-25T09:21:04.858Z,63.70
2017-07-25T09:23:32.822Z,63.05
2017-07-25T09:26:00.309Z,62.65
2017-07-25T09:28:27.758Z,61.57
2017-07-25T09:30:55.211Z,59.94
2017-07-25T09:33:22.686Z,59.95
2017-07-25T09:35:50.136Z,60.72
2017-07-25T09:38:17.584Z,59.00
2017-07-25T09:40:45.052Z,59.59
2017-07-25T09:43:12.496Z,58.53
2017-07-25T09:45:39.976Z,61.13
2017-07-25T09:48:07.426Z,60.45
2017-07-25T09:50:34.863Z,59.67
2017-07-25T09:53:02.349Z,60.17
2017-07-25T09:55:29.804Z,58.55
2017-07-25T09:57:57.252Z,58.79
2017-07-25T10:00:24.718Z,59.53
2017-07-25T10:02:52.160Z,57.31
2017-07-25T10:05:19.650Z,55.73
2017-07-25T10:07:47.109Z,56.66
2017-07-25T10:10:14.552Z,59.72
2017-07-25T10:12:42.033Z,59.76
2017-07-25T10:15:09.484Z,58.81
2017-07-25T10:17:36.952Z,58.24
2017-07-25T10:20:04.406Z,59.11
2017-07-25T10:22:32.201Z,58.92
2017-07-25T10:24:59.643Z,57.05
2017-07-25T10:27:27.088Z,57.42
2017-07-25T10:29:54.561Z,55.42
2017-07-25T10:32:22.021Z,55.82
2017-07-25T10:34:49.462Z,56.92
2017-07-25T10:37:16.961Z,57.36
2017-07-25T10:39:44.401Z,54.50
2017-07-25T10:42:11.849Z,53.62
2017-07-25T10:44:39.322Z,53.63
2017-07-25T10:47:06.770Z,54.11
2017-07-25T10:49:34.208Z,53.71
2017-07-25T10:52:01.686Z,55.74
2017-07-25T10:54:29.256Z,54.66
2017-07-25T10:56:56.693Z,54.99
2017-07-25T10:59:24.151Z,54.35
2017-07-25T11:01:51.620Z,56.23
2017-07-25T11:04:19.061Z,56.21
2017-07-25T11:06:46.532Z,55.72
2017-07-25T11:09:13.978Z,57.19
2017-07-25T11:11:41.450Z,55.40
2017-07-25T11:14:08.900Z,57.19
2017-07-25T11:16:36.396Z,57.00
2017-07-25T11:19:03.853Z,56.38
2017-07-25T11:21:31.302Z,55.72
2017-07-25T11:23:58.769Z,54.23
2017-07-25T11:26:26.213Z,56.40
2017-07-25T11:28:53.677Z,55.46
2017-07-25T11:31:21.121Z,56.58
2017-07-25T11:33:48.594Z,56.73
2017-07-25T11:36:16.169Z,57.02
2017-07-25T11:38:43.611Z,55.93
2017-07-25T11:41:11.063Z,57.33
2017-07-25T11:43:38.980Z,55.64
2017-07-25T11:46:06.423Z,56.64
2017-07-25T11:48:33.869Z,55.72
2017-07-25T11:51:01.342Z,56.59
2017-07-25T11:53:28.781Z,54.58
2017-07-25T11:55:56.237Z,57.62
2017-07-25T11:58:23.701Z,55.47
2017-07-25T12:00:51.157Z,56.71
2017-07-25T12:03:18.623Z,54.74
2017-07-25T12:05:46.105Z,56.21
2017-07-25T12:08:13.558Z,56.30
2017-07-25T12:10:41.005Z,57.60
2017-07-25T12:13:08.482Z,58.02
2017-07-25T12:15:35.924Z,57.34
2017-07-25T12:18:03.369Z,60.18
2017-07-25T12:20:30.860Z,59.41
2017-07-25T12:22:58.318Z,65.90
2017-07-25T12:25:25.762Z,76.44
2017-07-25T12:27:53.229Z,75.10
2017-07-25T12:30:20.679Z,69.33
2017-07-25T12:32:48.164Z,70.46
2017-07-25T12:35:15.602Z,69.27
2017-07-25T12:37:43.048Z,67.74
2017-07-25T12:40:10.806Z,63.71
2017-07-25T12:42:38.245Z,62.63
2017-07-25T12:45:05.694Z,59.30
2017-07-25T12:47:33.191Z,52.97
2017-07-25T12:50:00.632Z,55.60
2017-07-25T12:52:28.073Z,57.58
2017-07-25T12:54:55.571Z,56.82
2017-07-25T12:57:23.021Z,59.19
2017-07-25T12:59:50.493Z,61.78
2017-07-25T13:02:29.665Z,65.65
2017-07-25T13:04:57.142Z,64.61
2017-07-25T13:07:24.627Z,62.93
2017-07-25T13:09:52.071Z,62.38
2017-07-25T13:12:19.525Z,57.18
2017-07-25T13:14:46.986Z,53.93
2017-07-25T13:17:14.473Z,51.31
2017-07-25T13:19:41.918Z,51.02
2017-07-25T13:22:09.363Z,50.15
2017-07-25T13:24:36.827Z,49.54
2017-07-25T13:27:04.305Z,51.54
2017-07-25T13:29:31.749Z,54.85
2017-07-25T13:31:59.194Z,55.36
2017-07-25T13:34:26.707Z,56.73
2017-07-25T13:36:54.177Z,62.38
2017-07-25T13:39:21.661Z,65.97
2017-07-25T13:41:49.101Z,64.13
2017-07-25T13:44:16.580Z,61.73
2017-07-25T13:46:44.017Z,57.49
2017-07-25T13:49:11.491Z,58.88
2017-07-25T13:51:38.944Z,57.04
2017-07-25T13:54:06.413Z,52.36
2017-07-25T13:56:33.857Z,50.90
2017-07-25T13:59:01.345Z,51.74
2017-07-25T14:01:28.798Z,53.85
2017-07-25T14:03:56.278Z,51.83
2017-07-25T14:06:23.940Z,50.13
2017-07-25T14:08:51.377Z,50.15
2017-07-25T14:11:18.819Z,50.08
2017-07-25T14:13:46.288Z,50.95
2017-07-25T14:16:13.753Z,52.15
2017-07-25T14:18:41.201Z,52.78
2017-07-25T14:21:08.673Z,55.22
2017-07-25T14:23:36.119Z,54.46
2017-07-25T14:26:03.603Z,53.10
2017-07-25T14:28:31.079Z,52.65
2017-07-25T14:30:58.545Z,51.58
2017-07-25T14:33:25.992Z,53.17
2017-07-25T14:35:53.456Z,53.93
2017-07-25T14:38:20.904Z,55.79
2017-07-25T14:40:48.370Z,55.90
2017-07-25T14:43:15.837Z,55.89
2017-07-25T14:45:43.301Z,53.67
2017-07-25T14:48:10.745Z,51.94
2017-07-25T14:50:38.212Z,50.96
2017-07-25T14:53:05.659Z,48.69
2017-07-25T14:55:33.154Z,48.12
2017-07-25T15:00:37.390Z,46.56
2017-07-25T15:03:06.601Z,46.82
2017-07-25T15:05:34.091Z,48.72
2017-07-25T15:08:01.655Z,47.22
2017-07-25T15:10:29.323Z,48.38
2017-07-25T15:12:57.069Z,49.99
2017-07-25T15:15:25.297Z,47.61
2017-07-25T15:17:52.913Z,46.38
2017-07-25T15:20:21.569Z,45.80
2017-07-25T15:22:49.068Z,45.20
2017-07-25T15:25:16.543Z,46.85
2017-07-25T15:27:44.021Z,44.80
2017-07-25T15:30:11.463Z,45.87
2017-07-25T15:32:38.944Z,47.79
2017-07-25T15:35:06.392Z,46.13
2017-07-25T15:37:33.858Z,44.87
2017-07-25T15:40:01.305Z,45.31
2017-07-25T15:42:28.783Z,44.58
2017-07-25T15:44:56.229Z,44.26
2017-07-25T15:47:23.679Z,43.52
2017-07-25T15:49:51.390Z,44.46
2017-07-25T15:52:18.828Z,45.12
2017-07-25T15:54:46.272Z,43.92
2017-07-25T15:57:13.745Z,44.73
2017-07-25T15:59:41.199Z,42.58
2017-07-25T16:02:08.674Z,46.70
2017-07-25T16:04:36.117Z,46.02
2017-07-25T16:07:03.741Z,46.34
2017-07-25T16:09:31.193Z,47.19
2017-07-25T16:11:58.643Z,49.54
2017-07-25T16:14:26.112Z,49.81
2017-07-25T16:16:53.581Z,52.13
2017-07-25T16:19:21.029Z,52.88
2017-07-25T16:21:48.525Z,54.66
2017-07-25T16:24:15.991Z,55.43
2017-07-25T16:26:43.433Z,55.41
2017-07-25T16:29:10.909Z,55.21
2017-07-25T16:31:38.390Z,54.74
2017-07-25T16:34:05.865Z,51.11
2017-07-25T16:36:33.333Z,51.32
2017-07-25T16:39:00.786Z,52.94
2017-07-25T16:41:28.252Z,54.90
2017-07-25T16:43:55.745Z,56.04
2017-07-25T16:46:23.185Z,56.81
2017-07-25T16:48:50.630Z,57.47
2017-07-25T16:51:18.091Z,58.35
2017-07-25T16:53:45.530Z,58.71
2017-07-25T16:56:14.891Z,60.08
2017-07-25T16:58:44.651Z,59.52
2017-07-25T17:01:14.005Z,59.93
2017-07-25T17:03:43.508Z,60.28
2017-07-25T17:06:11.045Z,61.17
2017-07-25T17:08:38.486Z,60.90
2017-07-25T17:11:05.957Z,61.79
2017-07-25T17:13:33.409Z,61.79
2017-07-25T17:16:00.904Z,62.48
2017-07-25T17:18:28.355Z,63.48
2017-07-25T17:20:55.806Z,64.29
2017-07-25T17:23:23.474Z,63.63
2017-07-25T17:25:50.948Z,64.20
2017-07-25T17:28:18.397Z,64.78
2017-07-25T17:30:45.856Z,65.85
2017-07-25T17:33:13.290Z,65.07
2017-07-25T17:35:40.866Z,64.74
2017-07-25T17:38:08.316Z,65.47
2017-07-25T17:40:36.449Z,66.33
2017-07-25T17:43:04.564Z,67.27
2017-07-25T17:45:32.093Z,67.75
2017-07-25T17:47:59.541Z,68.33
2017-07-25T17:50:26.988Z,68.77
2017-07-25T17:52:54.465Z,69.99
2017-07-25T17:55:21.934Z,69.35
2017-07-25T17:57:50.209Z,69.21
2017-07-25T18:00:18.430Z,70.21
2017-07-25T18:02:46.358Z,71.89
2017-07-25T18:05:13.822Z,73.52
2017-07-25T18:07:41.502Z,76.72
2017-07-25T18:10:08.984Z,77.91
2017-07-25T18:12:36.666Z,78.08
2017-07-25T18:15:04.126Z,78.30
2017-07-25T18:17:31.594Z,79.24
2017-07-25T18:19:59.045Z,79.83
2017-07-25T18:22:26.838Z,79.65
2017-07-25T18:24:54.887Z,79.23
2017-07-25T18:27:22.342Z,80.07
2017-07-25T18:29:49.828Z,80.27
2017-07-25T18:32:17.288Z,80.12
2017-07-25T18:34:45.546Z,80.54
2017-07-25T18:37:14.554Z,80.29
2017-07-25T18:39:42.501Z,80.21
2017-07-25T18:42:10.174Z,80.70
2017-07-25T18:44:37.621Z,80.11
2017-07-25T18:47:06.153Z,80.20
2017-07-25T18:49:34.921Z,80.76
2017-07-25T18:52:02.454Z,80.52
2017-07-25T18:54:29.893Z,80.76
2017-07-25T18:56:57.354Z,80.52
2017-07-25T18:59:26.009Z,80.62
2017-07-25T19:01:53.852Z,79.26
2017-07-25T19:04:21.564Z,78.88
2017-07-25T19:06:49.018Z,79.42
2017-07-25T19:09:16.460Z,79.61
2017-07-25T19:11:44.012Z,79.46
2017-07-25T19:14:11.467Z,79.64
2017-07-25T19:16:38.935Z,78.99
2017-07-25T19:19:07.164Z,79.15
2017-07-25T19:21:35.553Z,78.98
2017-07-25T19:24:04.310Z,79.25
2017-07-25T19:26:31.752Z,78.48
2017-07-25T19:28:59.227Z,78.18
2017-07-25T19:31:27.586Z,78.60
2017-07-25T19:33:55.029Z,78.03
2017-07-25T19:36:22.497Z,78.41
2017-07-25T19:38:49.985Z,77.49
2017-07-25T19:41:17.690Z,77.78
2017-07-25T19:43:46.148Z,77.01
2017-07-25T19:46:13.631Z,76.65
2017-07-25T19:48:41.077Z,76.72
2017-07-25T19:51:08.537Z,76.95
2017-07-25T19:53:36.018Z,76.89
2017-07-25T19:56:03.459Z,77.11
2017-07-25T19:58:30.905Z,76.85
2017-07-25T20:00:58.378Z,76.85
2017-07-25T20:03:26.145Z,78.16
2017-07-25T20:05:53.665Z,76.50
2017-07-25T20:08:21.121Z,75.71
2017-07-25T20:10:48.826Z,77.51
2017-07-25T20:13:16.905Z,77.08
2017-07-25T20:15:44.374Z,77.01
2017-07-25T20:18:12.229Z,77.27
2017-07-25T20:20:39.707Z,76.98
2017-07-25T20:23:07.152Z,76.95
2017-07-25T20:25:34.817Z,76.88
2017-07-25T20:28:02.322Z,76.88
2017-07-25T20:30:29.773Z,77.02
2017-07-25T20:32:57.251Z,76.88
2017-07-25T20:35:26.093Z,77.25
2017-07-25T20:37:53.535Z,77.26
2017-07-25T20:40:20.984Z,77.15
2017-07-25T20:42:48.932Z,77.16
2017-07-25T20:45:16.380Z,77.63
2017-07-25T20:47:43.826Z,77.68
2017-07-25T20:50:11.293Z,78.12
2017-07-25T20:52:38.765Z,78.29
2017-07-25T20:55:06.226Z,78.69
2017-07-25T20:57:33.672Z,78.92
2017-07-25T21:00:01.148Z,78.90
2017-07-25T21:02:28.615Z,78.84
2017-07-25T21:04:56.065Z,78.62
2017-07-25T21:07:23.557Z,78.96
2017-07-25T21:09:51.280Z,79.08
2017-07-25T21:12:18.729Z,78.60
2017-07-25T21:14:46.207Z,77.68
2017-07-25T21:17:13.650Z,77.70
2017-07-25T21:19:41.095Z,77.43
2017-07-25T21:22:08.578Z,77.64
2017-07-25T21:24:36.065Z,77.30
2017-07-25T21:27:03.507Z,77.32
2017-07-25T21:29:30.961Z,77.27
2017-07-25T21:31:58.426Z,76.98
2017-07-25T21:34:25.902Z,76.63
2017-07-25T21:36:53.377Z,76.72
2017-07-25T21:39:20.848Z,76.19
2017-07-25T21:41:48.281Z,76.13
2017-07-25T21:44:15.727Z,76.02
2017-07-25T21:46:43.200Z,75.89
2017-07-25T21:49:10.646Z,75.51
2017-07-25T21:51:38.089Z,75.45
2017-07-25T21:54:05.574Z,75.07
2017-07-25T21:56:33.026Z,74.92
2017-07-25T21:59:00.474Z,75.16
2017-07-25T22:01:48.594Z,75.02
2017-07-25T22:04:27.733Z,74.90
2017-07-25T22:06:55.228Z,74.36
2017-07-25T22:09:22.674Z,74.25
2017-07-25T22:11:50.122Z,74.66
2017-07-25T22:14:17.761Z,74.52
2017-07-25T22:16:45.201Z,74.44
2017-07-25T22:19:12.645Z,74.41
2017-07-25T22:21:40.139Z,74.53
2017-07-25T22:24:07.577Z,74.67
2017-07-25T22:26:35.046Z,74.86
2017-07-25T22:29:02.498Z,75.21
2017-07-25T22:31:29.961Z,75.33
2017-07-25T22:33:57.417Z,78.96
2017-07-25T22:36:24.877Z,83.06
2017-07-25T22:38:52.325Z,83.57
2017-07-25T22:41:19.797Z,85.22
2017-07-25T22:43:47.273Z,86.59
2017-07-25T22:46:14.724Z,87.04
2017-07-25T22:48:42.193Z,87.69
2017-07-25T22:51:09.638Z,86.61
2017-07-25T22:53:37.080Z,87.21
2017-07-25T22:56:04.538Z,87.51
2017-07-25T22:58:31.989Z,86.87
2017-07-25T23:00:59.485Z,87.31
2017-07-25T23:03:26.936Z,86.63
2017-07-25T23:05:54.387Z,86.64
2017-07-25T23:08:21.876Z,86.26
2017-07-25T23:10:49.322Z,86.21
2017-07-25T23:13:16.761Z,86.43
2017-07-25T23:15:44.225Z,85.16
2017-07-25T23:18:11.697Z,84.85
2017-07-25T23:20:39.177Z,85.57
2017-07-25T23:23:06.629Z,86.34
2017-07-25T23:25:34.089Z,84.16
2017-07-25T23:28:01.559Z,84.86
2017-07-25T23:30:29.030Z,84.71
2017-07-25T23:32:56.485Z,84.95
2017-07-25T23:35:23.948Z,84.90
2017-07-25T23:37:51.400Z,85.43
2017-07-25T23:40:18.872Z,85.53
2017-07-25T23:42:46.344Z,85.62
2017-07-25T23:45:13.788Z,85.44
2017-07-25T23:47:41.233Z,85.89
2017-07-25T23:50:08.706Z,85.64
2017-07-25T23:52:36.153Z,85.04
2017-07-25T23:55:03.623Z,85.53
2017-07-25T23:57:31.093Z,85.87
2017-07-25T23:59:58.541Z,84.87
